sensor_id;sensor_type;location;lat;lon;timestamp;temperature;humidity
31731;DHT22;18310;55.586;12.286;2023-02-23T00:01:20;7.80;71.60
31731;DHT22;18310;55.586;12.286;2023-02-23T00:04:26;7.80;71.60
31731;DHT22;18310;55.586;12.286;2023-02-23T00:07:30;7.80;71.60
31731;DHT22;18310;55.586;12.286;2023-02-23T00:10:35;7.80;71.60
31731;DHT22;18310;55.586;12.286;2023-02-23T00:13:41;7.80;71.70
31731;DHT22;18310;55.586;12.286;2023-02-23T00:16:47;7.80;71.70
31731;DHT22;18310;55.586;12.286;2023-02-23T00:19:53;7.50;71.60
31731;DHT22;18310;55.586;12.286;2023-02-23T00:22:57;7.90;71.80
31731;DHT22;18310;55.586;12.286;2023-02-23T00:26:02;7.90;71.70
31731;DHT22;18310;55.586;12.286;2023-02-23T00:29:10;8.90;72.40
31731;DHT22;18310;55.586;12.286;2023-02-23T00:32:18;7.90;71.80
31731;DHT22;18310;55.586;12.286;2023-02-23T00:35:24;7.90;71.90
31731;DHT22;18310;55.586;12.286;2023-02-23T00:38:28;7.90;71.90
31731;DHT22;18310;55.586;12.286;2023-02-23T00:41:37;7.80;71.90
31731;DHT22;18310;55.586;12.286;2023-02-23T00:44:42;7.90;71.90
31731;DHT22;18310;55.586;12.286;2023-02-23T00:47:48;7.80;72.00
31731;DHT22;18310;55.586;12.286;2023-02-23T00:50:59;7.90;72.20
31731;DHT22;18310;55.586;12.286;2023-02-23T00:54:07;7.30;71.90
31731;DHT22;18310;55.586;12.286;2023-02-23T00:57:14;9.70;73.20
31731;DHT22;18310;55.586;12.286;2023-02-23T01:00:19;7.80;72.20
31731;DHT22;18310;55.586;12.286;2023-02-23T01:03:23;7.80;72.10
31731;DHT22;18310;55.586;12.286;2023-02-23T01:06:28;7.90;72.20
31731;DHT22;18310;55.586;12.286;2023-02-23T01:09:43;7.90;72.20
31731;DHT22;18310;55.586;12.286;2023-02-23T01:12:53;7.80;71.70
31731;DHT22;18310;55.586;12.286;2023-02-23T01:15:57;7.90;72.10
31731;DHT22;18310;55.586;12.286;2023-02-23T01:19:03;7.90;71.90
31731;DHT22;18310;55.586;12.286;2023-02-23T01:22:09;7.90;72.20
31731;DHT22;18310;55.586;12.286;2023-02-23T01:25:13;7.90;72.20
31731;DHT22;18310;55.586;12.286;2023-02-23T01:28:17;7.80;72.10
31731;DHT22;18310;55.586;12.286;2023-02-23T01:31:22;7.90;72.10
31731;DHT22;18310;55.586;12.286;2023-02-23T01:34:28;7.80;72.10
31731;DHT22;18310;55.586;12.286;2023-02-23T01:37:35;7.90;72.10
31731;DHT22;18310;55.586;12.286;2023-02-23T01:40:42;7.90;72.30
31731;DHT22;18310;55.586;12.286;2023-02-23T01:43:55;7.80;72.20
31731;DHT22;18310;55.586;12.286;2023-02-23T01:47:00;7.90;72.30
31731;DHT22;18310;55.586;12.286;2023-02-23T01:50:06;7.90;72.30
31731;DHT22;18310;55.586;12.286;2023-02-23T01:53:15;9.70;73.20
31731;DHT22;18310;55.586;12.286;2023-02-23T01:56:23;7.90;72.60
31731;DHT22;18310;55.586;12.286;2023-02-23T01:59:32;7.80;72.40
31731;DHT22;18310;55.586;12.286;2023-02-23T02:02:41;7.80;72.50
31731;DHT22;18310;55.586;12.286;2023-02-23T02:05:46;7.90;72.60
31731;DHT22;18310;55.586;12.286;2023-02-23T02:08:56;8.00;72.70
31731;DHT22;18310;55.586;12.286;2023-02-23T02:12:10;7.90;72.60
31731;DHT22;18310;55.586;12.286;2023-02-23T02:15:15;7.90;72.40
31731;DHT22;18310;55.586;12.286;2023-02-23T02:18:26;8.80;72.90
31731;DHT22;18310;55.586;12.286;2023-02-23T02:25:56;7.90;72.70
31731;DHT22;18310;55.586;12.286;2023-02-23T02:40:54;7.80;72.30
31731;DHT22;18310;55.586;12.286;2023-02-23T02:44:10;7.80;72.10
31731;DHT22;18310;55.586;12.286;2023-02-23T02:47:25;7.80;72.20
31731;DHT22;18310;55.586;12.286;2023-02-23T02:50:41;7.80;72.20
31731;DHT22;18310;55.586;12.286;2023-02-23T02:53:57;6.20;71.50
31731;DHT22;18310;55.586;12.286;2023-02-23T02:57:10;7.80;72.40
31731;DHT22;18310;55.586;12.286;2023-02-23T03:00:18;7.70;72.40
31731;DHT22;18310;55.586;12.286;2023-02-23T03:03:44;7.70;72.50
31731;DHT22;18310;55.586;12.286;2023-02-23T03:07:08;7.70;72.50
31731;DHT22;18310;55.586;12.286;2023-02-23T03:10:41;7.70;73.10
31731;DHT22;18310;55.586;12.286;2023-02-23T03:14:16;7.70;72.50
31731;DHT22;18310;55.586;12.286;2023-02-23T03:17:55;7.70;72.70
31731;DHT22;18310;55.586;12.286;2023-02-23T03:21:27;7.80;73.20
31731;DHT22;18310;55.586;12.286;2023-02-23T03:24:56;7.70;73.20
31731;DHT22;18310;55.586;12.286;2023-02-23T03:28:28;7.70;72.80
31731;DHT22;18310;55.586;12.286;2023-02-23T03:32:02;8.90;73.50
31731;DHT22;18310;55.586;12.286;2023-02-23T03:35:31;7.80;72.90
31731;DHT22;18310;55.586;12.286;2023-02-23T03:39:03;8.80;73.30
31731;DHT22;18310;55.586;12.286;2023-02-23T03:42:35;7.70;72.50
31731;DHT22;18310;55.586;12.286;2023-02-23T03:46:02;7.70;72.40
31731;DHT22;18310;55.586;12.286;2023-02-23T03:49:29;7.70;72.50
31731;DHT22;18310;55.586;12.286;2023-02-23T03:52:57;6.60;72.00
31731;DHT22;18310;55.586;12.286;2023-02-23T03:56:24;7.70;72.60
31731;DHT22;18310;55.586;12.286;2023-02-23T03:59:51;6.20;71.70
31731;DHT22;18310;55.586;12.286;2023-02-23T04:03:19;7.80;72.40
31731;DHT22;18310;55.586;12.286;2023-02-23T04:06:44;7.70;72.30
31731;DHT22;18310;55.586;12.286;2023-02-23T04:10:09;7.70;72.30
31731;DHT22;18310;55.586;12.286;2023-02-23T04:13:32;7.70;72.40
31731;DHT22;18310;55.586;12.286;2023-02-23T04:16:39;7.70;72.50
31731;DHT22;18310;55.586;12.286;2023-02-23T04:19:49;8.60;73.10
31731;DHT22;18310;55.586;12.286;2023-02-23T04:22:54;7.30;72.50
31731;DHT22;18310;55.586;12.286;2023-02-23T04:25:58;7.70;72.60
31731;DHT22;18310;55.586;12.286;2023-02-23T04:29:02;7.70;73.10
31731;DHT22;18310;55.586;12.286;2023-02-23T04:32:06;7.70;72.60
31731;DHT22;18310;55.586;12.286;2023-02-23T04:35:14;7.70;73.10
31731;DHT22;18310;55.586;12.286;2023-02-23T04:38:17;7.70;72.60
31731;DHT22;18310;55.586;12.286;2023-02-23T04:41:21;7.70;72.70
31731;DHT22;18310;55.586;12.286;2023-02-23T04:44:25;7.70;72.50
31731;DHT22;18310;55.586;12.286;2023-02-23T04:47:29;7.70;72.70
31731;DHT22;18310;55.586;12.286;2023-02-23T04:50:35;7.70;72.70
31731;DHT22;18310;55.586;12.286;2023-02-23T04:53:41;8.70;73.30
31731;DHT22;18310;55.586;12.286;2023-02-23T04:56:45;7.70;72.80
31731;DHT22;18310;55.586;12.286;2023-02-23T04:59:49;7.70;72.80
31731;DHT22;18310;55.586;12.286;2023-02-23T05:02:52;7.70;72.80
31731;DHT22;18310;55.586;12.286;2023-02-23T05:05:58;7.70;73.10
31731;DHT22;18310;55.586;12.286;2023-02-23T05:09:03;7.70;72.70
31731;DHT22;18310;55.586;12.286;2023-02-23T05:12:17;7.70;73.30
31731;DHT22;18310;55.586;12.286;2023-02-23T05:15:21;7.70;73.10
31731;DHT22;18310;55.586;12.286;2023-02-23T05:18:27;6.50;72.30
31731;DHT22;18310;55.586;12.286;2023-02-23T05:21:33;7.70;73.10
31731;DHT22;18310;55.586;12.286;2023-02-23T05:24:38;7.70;73.00
31731;DHT22;18310;55.586;12.286;2023-02-23T05:27:41;7.70;72.90
31731;DHT22;18310;55.586;12.286;2023-02-23T05:30:46;7.70;73.20
31731;DHT22;18310;55.586;12.286;2023-02-23T05:33:50;9.10;74.00
31731;DHT22;18310;55.586;12.286;2023-02-23T05:36:55;7.10;73.00
31731;DHT22;18310;55.586;12.286;2023-02-23T05:39:59;7.60;73.30
31731;DHT22;18310;55.586;12.286;2023-02-23T05:43:03;7.60;73.40
31731;DHT22;18310;55.586;12.286;2023-02-23T05:46:10;7.60;73.60
31731;DHT22;18310;55.586;12.286;2023-02-23T05:49:19;7.50;73.70
31731;DHT22;18310;55.586;12.286;2023-02-23T05:52:26;7.50;73.90
31731;DHT22;18310;55.586;12.286;2023-02-23T05:55:30;7.50;73.90
31731;DHT22;18310;55.586;12.286;2023-02-23T05:58:34;7.50;74.00
31731;DHT22;18310;55.586;12.286;2023-02-23T06:01:38;7.30;74.70
31731;DHT22;18310;55.586;12.286;2023-02-23T06:04:42;7.50;73.90
31731;DHT22;18310;55.586;12.286;2023-02-23T06:07:55;7.20;73.90
31731;DHT22;18310;55.586;12.286;2023-02-23T06:10:59;7.50;74.30
31731;DHT22;18310;55.586;12.286;2023-02-23T06:14:12;7.40;74.20
31731;DHT22;18310;55.586;12.286;2023-02-23T06:17:22;7.50;74.30
31731;DHT22;18310;55.586;12.286;2023-02-23T06:20:26;7.60;74.50
31731;DHT22;18310;55.586;12.286;2023-02-23T06:23:35;5.60;74.20
31731;DHT22;18310;55.586;12.286;2023-02-23T06:26:39;9.30;75.30
31731;DHT22;18310;55.586;12.286;2023-02-23T06:29:45;7.40;74.20
31731;DHT22;18310;55.586;12.286;2023-02-23T06:32:49;7.40;74.10
31731;DHT22;18310;55.586;12.286;2023-02-23T06:35:54;6.70;74.40
31731;DHT22;18310;55.586;12.286;2023-02-23T06:38:59;7.40;74.10
31731;DHT22;18310;55.586;12.286;2023-02-23T06:42:02;8.90;75.00
31731;DHT22;18310;55.586;12.286;2023-02-23T06:45:08;7.40;74.20
31731;DHT22;18310;55.586;12.286;2023-02-23T06:48:14;7.50;74.20
31731;DHT22;18310;55.586;12.286;2023-02-23T06:51:19;6.60;73.70
31731;DHT22;18310;55.586;12.286;2023-02-23T06:54:24;7.50;74.10
31731;DHT22;18310;55.586;12.286;2023-02-23T06:57:28;6.10;73.30
31731;DHT22;18310;55.586;12.286;2023-02-23T07:00:38;7.50;74.00
31731;DHT22;18310;55.586;12.286;2023-02-23T07:03:45;8.00;74.40
31731;DHT22;18310;55.586;12.286;2023-02-23T07:06:50;7.60;74.10
31731;DHT22;18310;55.586;12.286;2023-02-23T07:09:55;7.60;74.20
31731;DHT22;18310;55.586;12.286;2023-02-23T07:12:59;7.50;74.10
31731;DHT22;18310;55.586;12.286;2023-02-23T07:16:04;7.60;74.10
31731;DHT22;18310;55.586;12.286;2023-02-23T07:19:10;7.60;74.00
31731;DHT22;18310;55.586;12.286;2023-02-23T07:22:15;7.70;74.00
31731;DHT22;18310;55.586;12.286;2023-02-23T07:25:22;7.70;73.90
31731;DHT22;18310;55.586;12.286;2023-02-23T07:28:26;7.70;74.10
31731;DHT22;18310;55.586;12.286;2023-02-23T07:31:30;7.40;74.00
31731;DHT22;18310;55.586;12.286;2023-02-23T07:34:34;7.80;74.20
31731;DHT22;18310;55.586;12.286;2023-02-23T07:37:38;7.80;74.00
31731;DHT22;18310;55.586;12.286;2023-02-23T07:40:45;8.70;74.40
31731;DHT22;18310;55.586;12.286;2023-02-23T07:43:48;7.80;73.70
31731;DHT22;18310;55.586;12.286;2023-02-23T07:46:53;7.90;73.80
31731;DHT22;18310;55.586;12.286;2023-02-23T07:49:57;7.50;73.30
31731;DHT22;18310;55.586;12.286;2023-02-23T07:53:03;7.90;73.60
31731;DHT22;18310;55.586;12.286;2023-02-23T07:56:18;7.90;73.60
31731;DHT22;18310;55.586;12.286;2023-02-23T07:59:21;7.90;73.50
31731;DHT22;18310;55.586;12.286;2023-02-23T08:02:25;7.30;73.00
31731;DHT22;18310;55.586;12.286;2023-02-23T08:05:35;7.90;73.20
31731;DHT22;18310;55.586;12.286;2023-02-23T08:08:41;6.10;72.10
31731;DHT22;18310;55.586;12.286;2023-02-23T08:11:46;8.00;73.10
31731;DHT22;18310;55.586;12.286;2023-02-23T08:14:49;8.00;73.20
31731;DHT22;18310;55.586;12.286;2023-02-23T08:17:54;8.00;72.90
31731;DHT22;18310;55.586;12.286;2023-02-23T08:20:59;6.90;72.30
31731;DHT22;18310;55.586;12.286;2023-02-23T08:24:04;8.00;73.00
31731;DHT22;18310;55.586;12.286;2023-02-23T08:27:20;8.00;73.10
31731;DHT22;18310;55.586;12.286;2023-02-23T08:30:32;8.00;73.20
31731;DHT22;18310;55.586;12.286;2023-02-23T08:33:37;8.00;73.10
31731;DHT22;18310;55.586;12.286;2023-02-23T08:36:50;8.00;73.10
31731;DHT22;18310;55.586;12.286;2023-02-23T08:39:55;8.00;73.20
31731;DHT22;18310;55.586;12.286;2023-02-23T08:43:01;8.10;73.30
31731;DHT22;18310;55.586;12.286;2023-02-23T08:46:05;8.10;73.30
31731;DHT22;18310;55.586;12.286;2023-02-23T08:49:10;7.00;72.70
31731;DHT22;18310;55.586;12.286;2023-02-23T08:52:14;8.10;73.30
31731;DHT22;18310;55.586;12.286;2023-02-23T08:55:18;8.10;73.40
31731;DHT22;18310;55.586;12.286;2023-02-23T08:58:24;8.10;73.50
31731;DHT22;18310;55.586;12.286;2023-02-23T09:01:30;8.10;73.60
31731;DHT22;18310;55.586;12.286;2023-02-23T09:04:35;8.10;73.60
31731;DHT22;18310;55.586;12.286;2023-02-23T09:07:39;9.00;74.00
31731;DHT22;18310;55.586;12.286;2023-02-23T09:10:46;8.10;73.80
31731;DHT22;18310;55.586;12.286;2023-02-23T09:13:53;8.20;73.50
31731;DHT22;18310;55.586;12.286;2023-02-23T09:16:57;8.20;73.60
31731;DHT22;18310;55.586;12.286;2023-02-23T09:20:01;8.30;73.60
31731;DHT22;18310;55.586;12.286;2023-02-23T09:23:07;8.30;73.50
31731;DHT22;18310;55.586;12.286;2023-02-23T09:26:12;9.10;73.80
31731;DHT22;18310;55.586;12.286;2023-02-23T09:29:19;8.30;73.80
31731;DHT22;18310;55.586;12.286;2023-02-23T09:32:24;8.60;73.50
31731;DHT22;18310;55.586;12.286;2023-02-23T09:35:27;8.30;73.40
31731;DHT22;18310;55.586;12.286;2023-02-23T09:38:31;7.20;73.30
31731;DHT22;18310;55.586;12.286;2023-02-23T09:41:49;8.30;73.40
31731;DHT22;18310;55.586;12.286;2023-02-23T09:45:14;8.20;73.50
31731;DHT22;18310;55.586;12.286;2023-02-23T09:48:24;6.60;72.70
31731;DHT22;18310;55.586;12.286;2023-02-23T09:51:37;9.40;74.20
31731;DHT22;18310;55.586;12.286;2023-02-23T09:54:44;8.30;73.70
31731;DHT22;18310;55.586;12.286;2023-02-23T09:57:49;8.20;73.60
31731;DHT22;18310;55.586;12.286;2023-02-23T10:01:27;8.00;73.60
31731;DHT22;18310;55.586;12.286;2023-02-23T10:05:03;8.30;74.10
31731;DHT22;18310;55.586;12.286;2023-02-23T10:08:29;8.30;74.00
31731;DHT22;18310;55.586;12.286;2023-02-23T10:11:51;8.30;74.00
31731;DHT22;18310;55.586;12.286;2023-02-23T10:15:11;8.30;74.00
31731;DHT22;18310;55.586;12.286;2023-02-23T10:18:28;9.00;74.60
31731;DHT22;18310;55.586;12.286;2023-02-23T10:21:52;8.30;74.30
31731;DHT22;18310;55.586;12.286;2023-02-23T10:25:02;8.40;74.20
31731;DHT22;18310;55.586;12.286;2023-02-23T10:28:12;8.40;74.20
31731;DHT22;18310;55.586;12.286;2023-02-23T10:31:26;8.50;74.20
31731;DHT22;18310;55.586;12.286;2023-02-23T10:34:35;8.50;74.60
31731;DHT22;18310;55.586;12.286;2023-02-23T10:37:39;8.50;74.50
31731;DHT22;18310;55.586;12.286;2023-02-23T10:40:46;8.50;74.30
31731;DHT22;18310;55.586;12.286;2023-02-23T10:43:52;8.50;74.30
31731;DHT22;18310;55.586;12.286;2023-02-23T10:47:04;8.50;74.20
31731;DHT22;18310;55.586;12.286;2023-02-23T10:50:14;8.50;74.90
31731;DHT22;18310;55.586;12.286;2023-02-23T10:53:23;7.70;74.40
31731;DHT22;18310;55.586;12.286;2023-02-23T10:56:28;8.60;74.80
31731;DHT22;18310;55.586;12.286;2023-02-23T10:59:57;8.60;74.50
31731;DHT22;18310;55.586;12.286;2023-02-23T11:03:17;8.20;74.30
31731;DHT22;18310;55.586;12.286;2023-02-23T11:06:31;8.70;75.10
31731;DHT22;18310;55.586;12.286;2023-02-23T11:09:40;9.20;75.00
31731;DHT22;18310;55.586;12.286;2023-02-23T11:12:48;8.80;74.50
31731;DHT22;18310;55.586;12.286;2023-02-23T11:15:56;9.60;74.80
31731;DHT22;18310;55.586;12.286;2023-02-23T11:19:04;8.80;74.80
31731;DHT22;18310;55.586;12.286;2023-02-23T11:22:21;8.80;74.10
31731;DHT22;18310;55.586;12.286;2023-02-23T11:25:29;8.80;74.10
31731;DHT22;18310;55.586;12.286;2023-02-23T11:28:40;8.80;74.20
31731;DHT22;18310;55.586;12.286;2023-02-23T11:31:49;8.90;74.30
31731;DHT22;18310;55.586;12.286;2023-02-23T11:38:39;8.60;74.60
31731;DHT22;18310;55.586;12.286;2023-02-23T11:41:43;10.90;75.60
31731;DHT22;18310;55.586;12.286;2023-02-23T11:45:02;8.90;74.40
31731;DHT22;18310;55.586;12.286;2023-02-23T11:48:19;9.00;74.50
31731;DHT22;18310;55.586;12.286;2023-02-23T11:51:27;9.00;74.60
31731;DHT22;18310;55.586;12.286;2023-02-23T11:54:34;9.00;74.50
31731;DHT22;18310;55.586;12.286;2023-02-23T11:57:39;9.10;74.70
31731;DHT22;18310;55.586;12.286;2023-02-23T12:00:44;10.80;75.60
31731;DHT22;18310;55.586;12.286;2023-02-23T12:03:57;9.10;75.20
31731;DHT22;18310;55.586;12.286;2023-02-23T12:07:18;9.20;74.60
31731;DHT22;18310;55.586;12.286;2023-02-23T12:10:40;8.60;74.70
31731;DHT22;18310;55.586;12.286;2023-02-23T12:13:48;9.30;74.60
31731;DHT22;18310;55.586;12.286;2023-02-23T12:17:01;9.30;75.20
31731;DHT22;18310;55.586;12.286;2023-02-23T12:20:13;9.10;74.60
31731;DHT22;18310;55.586;12.286;2023-02-23T12:23:24;9.40;74.60
31731;DHT22;18310;55.586;12.286;2023-02-23T12:26:41;9.40;74.50
31731;DHT22;18310;55.586;12.286;2023-02-23T12:30:00;9.20;74.40
31731;DHT22;18310;55.586;12.286;2023-02-23T12:33:14;9.50;74.60
31731;DHT22;18310;55.586;12.286;2023-02-23T12:36:25;9.50;74.40
31731;DHT22;18310;55.586;12.286;2023-02-23T12:39:37;9.60;74.50
31731;DHT22;18310;55.586;12.286;2023-02-23T12:43:01;9.60;74.50
31731;DHT22;18310;55.586;12.286;2023-02-23T12:46:12;9.70;74.90
31731;DHT22;18310;55.586;12.286;2023-02-23T12:49:30;9.70;74.70
31731;DHT22;18310;55.586;12.286;2023-02-23T12:52:44;9.80;74.90
31731;DHT22;18310;55.586;12.286;2023-02-23T12:56:07;9.80;74.70
31731;DHT22;18310;55.586;12.286;2023-02-23T12:59:54;7.50;73.00
31731;DHT22;18310;55.586;12.286;2023-02-23T13:07:31;10.00;75.00
31731;DHT22;18310;55.586;12.286;2023-02-23T13:10:49;10.10;74.70
31731;DHT22;18310;55.586;12.286;2023-02-23T13:14:01;10.20;74.50
31731;DHT22;18310;55.586;12.286;2023-02-23T13:17:31;10.20;74.30
31731;DHT22;18310;55.586;12.286;2023-02-23T13:20:46;10.20;74.50
31731;DHT22;18310;55.586;12.286;2023-02-23T13:23:58;10.20;74.30
31731;DHT22;18310;55.586;12.286;2023-02-23T13:27:14;10.30;74.50
31731;DHT22;18310;55.586;12.286;2023-02-23T13:30:25;10.30;74.30
31731;DHT22;18310;55.586;12.286;2023-02-23T13:33:40;10.30;74.20
31731;DHT22;18310;55.586;12.286;2023-02-23T13:36:49;10.10;74.20
31731;DHT22;18310;55.586;12.286;2023-02-23T13:40:00;10.30;74.20
31731;DHT22;18310;55.586;12.286;2023-02-23T13:43:21;10.40;74.30
31731;DHT22;18310;55.586;12.286;2023-02-23T13:46:42;8.90;73.40
31731;DHT22;18310;55.586;12.286;2023-02-23T13:49:57;10.40;74.30
31731;DHT22;18310;55.586;12.286;2023-02-23T13:53:32;8.70;73.30
31731;DHT22;18310;55.586;12.286;2023-02-23T13:56:43;10.40;74.70
31731;DHT22;18310;55.586;12.286;2023-02-23T13:59:50;10.40;74.30
31731;DHT22;18310;55.586;12.286;2023-02-23T14:02:55;10.40;74.40
31731;DHT22;18310;55.586;12.286;2023-02-23T14:06:01;10.40;74.50
31731;DHT22;18310;55.586;12.286;2023-02-23T14:09:12;10.40;74.80
31731;DHT22;18310;55.586;12.286;2023-02-23T14:12:32;10.40;74.90
31731;DHT22;18310;55.586;12.286;2023-02-23T14:15:45;10.50;75.30
31731;DHT22;18310;55.586;12.286;2023-02-23T14:19:06;10.50;75.20
31731;DHT22;18310;55.586;12.286;2023-02-23T14:22:16;10.60;75.10
31731;DHT22;18310;55.586;12.286;2023-02-23T14:25:46;10.60;74.90
31731;DHT22;18310;55.586;12.286;2023-02-23T14:29:20;10.70;75.10
31731;DHT22;18310;55.586;12.286;2023-02-23T14:32:29;10.60;74.80
31731;DHT22;18310;55.586;12.286;2023-02-23T14:35:42;10.60;74.40
31731;DHT22;18310;55.586;12.286;2023-02-23T14:38:50;10.60;74.30
31731;DHT22;18310;55.586;12.286;2023-02-23T14:42:05;10.50;74.50
31731;DHT22;18310;55.586;12.286;2023-02-23T14:45:17;10.50;74.80
31731;DHT22;18310;55.586;12.286;2023-02-23T14:48:28;10.20;74.90
31731;DHT22;18310;55.586;12.286;2023-02-23T14:51:36;11.40;75.40
31731;DHT22;18310;55.586;12.286;2023-02-23T14:54:45;10.40;75.10
31731;DHT22;18310;55.586;12.286;2023-02-23T14:57:50;10.40;75.10
31731;DHT22;18310;55.586;12.286;2023-02-23T15:00:55;10.40;75.20
31731;DHT22;18310;55.586;12.286;2023-02-23T15:04:08;10.40;75.10
31731;DHT22;18310;55.586;12.286;2023-02-23T15:07:17;8.50;74.80
31731;DHT22;18310;55.586;12.286;2023-02-23T15:10:32;11.00;75.90
31731;DHT22;18310;55.586;12.286;2023-02-23T15:13:41;10.40;75.70
31731;DHT22;18310;55.586;12.286;2023-02-23T15:16:51;8.70;74.60
31731;DHT22;18310;55.586;12.286;2023-02-23T15:19:57;10.40;75.50
31731;DHT22;18310;55.586;12.286;2023-02-23T15:23:18;10.40;75.50
31731;DHT22;18310;55.586;12.286;2023-02-23T15:26:27;10.40;75.60
31731;DHT22;18310;55.586;12.286;2023-02-23T15:29:36;10.40;75.80
31731;DHT22;18310;55.586;12.286;2023-02-23T15:32:41;10.40;75.60
31731;DHT22;18310;55.586;12.286;2023-02-23T15:35:49;10.40;75.30
31731;DHT22;18310;55.586;12.286;2023-02-23T15:38:59;9.10;74.90
31731;DHT22;18310;55.586;12.286;2023-02-23T15:42:12;8.70;74.60
31731;DHT22;18310;55.586;12.286;2023-02-23T15:45:22;11.20;76.20
31731;DHT22;18310;55.586;12.286;2023-02-23T15:48:41;10.40;75.60
31731;DHT22;18310;55.586;12.286;2023-02-23T15:51:50;10.30;75.70
31731;DHT22;18310;55.586;12.286;2023-02-23T15:55:04;10.30;75.40
31731;DHT22;18310;55.586;12.286;2023-02-23T15:58:23;11.40;76.10
31731;DHT22;18310;55.586;12.286;2023-02-23T16:01:29;10.20;75.70
31731;DHT22;18310;55.586;12.286;2023-02-23T16:04:38;10.20;75.60
31731;DHT22;18310;55.586;12.286;2023-02-23T16:08:01;9.60;75.50
31731;DHT22;18310;55.586;12.286;2023-02-23T16:11:09;10.10;76.00
31731;DHT22;18310;55.586;12.286;2023-02-23T16:14:23;9.10;75.00
31731;DHT22;18310;55.586;12.286;2023-02-23T16:17:41;10.10;75.90
31731;DHT22;18310;55.586;12.286;2023-02-23T16:20:47;10.00;76.00
31731;DHT22;18310;55.586;12.286;2023-02-23T16:23:58;10.00;75.90
31731;DHT22;18310;55.586;12.286;2023-02-23T16:27:12;9.90;76.10
31731;DHT22;18310;55.586;12.286;2023-02-23T16:30:38;9.90;76.20
31731;DHT22;18310;55.586;12.286;2023-02-23T16:33:50;9.90;76.50
31731;DHT22;18310;55.586;12.286;2023-02-23T16:36:59;9.90;76.40
31731;DHT22;18310;55.586;12.286;2023-02-23T16:40:13;9.90;76.30
31731;DHT22;18310;55.586;12.286;2023-02-23T16:43:19;9.90;76.50
31731;DHT22;18310;55.586;12.286;2023-02-23T16:46:27;9.90;76.30
31731;DHT22;18310;55.586;12.286;2023-02-23T16:49:35;9.90;76.50
31731;DHT22;18310;55.586;12.286;2023-02-23T16:52:41;9.90;76.40
31731;DHT22;18310;55.586;12.286;2023-02-23T16:55:50;11.70;77.40
31731;DHT22;18310;55.586;12.286;2023-02-23T16:59:00;9.90;76.40
31731;DHT22;18310;55.586;12.286;2023-02-23T17:02:09;9.90;76.40
31731;DHT22;18310;55.586;12.286;2023-02-23T17:05:19;10.40;76.70
31731;DHT22;18310;55.586;12.286;2023-02-23T17:08:25;9.90;76.40
31731;DHT22;18310;55.586;12.286;2023-02-23T17:11:29;9.90;76.50
31731;DHT22;18310;55.586;12.286;2023-02-23T17:14:33;12.00;77.60
31731;DHT22;18310;55.586;12.286;2023-02-23T17:17:39;10.00;76.40
31731;DHT22;18310;55.586;12.286;2023-02-23T17:20:48;11.80;77.40
31731;DHT22;18310;55.586;12.286;2023-02-23T17:23:54;10.00;76.50
31731;DHT22;18310;55.586;12.286;2023-02-23T17:27:05;10.00;76.40
31731;DHT22;18310;55.586;12.286;2023-02-23T17:30:15;10.00;76.50
31731;DHT22;18310;55.586;12.286;2023-02-23T17:33:27;10.00;76.50
31731;DHT22;18310;55.586;12.286;2023-02-23T17:36:53;10.10;76.50
31731;DHT22;18310;55.586;12.286;2023-02-23T17:40:12;10.10;76.50
31731;DHT22;18310;55.586;12.286;2023-02-23T17:44:24;10.90;77.00
31731;DHT22;18310;55.586;12.286;2023-02-23T17:48:02;9.80;76.50
31731;DHT22;18310;55.586;12.286;2023-02-23T17:51:35;8.60;75.20
31731;DHT22;18310;55.586;12.286;2023-02-23T17:55:13;11.30;76.90
31731;DHT22;18310;55.586;12.286;2023-02-23T17:59:06;10.20;76.10
31731;DHT22;18310;55.586;12.286;2023-02-23T18:02:52;10.20;76.10
31731;DHT22;18310;55.586;12.286;2023-02-23T18:06:50;12.50;76.90
31731;DHT22;18310;55.586;12.286;2023-02-23T18:10:08;8.50;75.00
31731;DHT22;18310;55.586;12.286;2023-02-23T18:13:58;10.20;75.80
31731;DHT22;18310;55.586;12.286;2023-02-23T18:17:46;10.10;75.40
31731;DHT22;18310;55.586;12.286;2023-02-23T18:21:42;10.10;75.30
31731;DHT22;18310;55.586;12.286;2023-02-23T18:25:26;11.30;75.80
31731;DHT22;18310;55.586;12.286;2023-02-23T18:28:51;9.90;75.00
31731;DHT22;18310;55.586;12.286;2023-02-23T18:32:15;9.80;75.00
31731;DHT22;18310;55.586;12.286;2023-02-23T18:35:52;9.70;74.90
31731;DHT22;18310;55.586;12.286;2023-02-23T18:39:12;9.70;74.80
31731;DHT22;18310;55.586;12.286;2023-02-23T18:42:41;9.60;74.80
31731;DHT22;18310;55.586;12.286;2023-02-23T18:45:52;9.60;75.20
31731;DHT22;18310;55.586;12.286;2023-02-23T18:49:22;9.50;75.10
31731;DHT22;18310;55.586;12.286;2023-02-23T18:53:26;9.50;75.10
31731;DHT22;18310;55.586;12.286;2023-02-23T18:57:15;9.70;75.00
31731;DHT22;18310;55.586;12.286;2023-02-23T19:00:41;11.30;76.00
31731;DHT22;18310;55.586;12.286;2023-02-23T19:04:00;9.40;74.90
31731;DHT22;18310;55.586;12.286;2023-02-23T19:07:20;9.40;74.80
31731;DHT22;18310;55.586;12.286;2023-02-23T19:10:35;9.40;74.80
31731;DHT22;18310;55.586;12.286;2023-02-23T19:14:24;9.40;74.60
31731;DHT22;18310;55.586;12.286;2023-02-23T19:18:07;10.00;75.10
31731;DHT22;18310;55.586;12.286;2023-02-23T19:21:25;9.30;74.70
31731;DHT22;18310;55.586;12.286;2023-02-23T19:24:50;9.30;74.60
31731;DHT22;18310;55.586;12.286;2023-02-23T19:28:05;11.40;75.60
31731;DHT22;18310;55.586;12.286;2023-02-23T19:31:27;9.20;73.60
31731;DHT22;18310;55.586;12.286;2023-02-23T19:35:10;9.20;74.00
31731;DHT22;18310;55.586;12.286;2023-02-23T19:38:35;9.20;74.00
31731;DHT22;18310;55.586;12.286;2023-02-23T19:41:59;9.10;74.00
31731;DHT22;18310;55.586;12.286;2023-02-23T19:45:08;9.10;74.00
31731;DHT22;18310;55.586;12.286;2023-02-23T19:48:31;9.10;74.00
31731;DHT22;18310;55.586;12.286;2023-02-23T19:51:59;9.10;73.90
31731;DHT22;18310;55.586;12.286;2023-02-23T19:55:11;9.10;73.80
31731;DHT22;18310;55.586;12.286;2023-02-23T19:58:38;9.10;73.50
31731;DHT22;18310;55.586;12.286;2023-02-23T20:01:50;11.20;74.70
31731;DHT22;18310;55.586;12.286;2023-02-23T20:05:06;9.00;73.50
31731;DHT22;18310;55.586;12.286;2023-02-23T20:08:21;9.00;73.30
31731;DHT22;18310;55.586;12.286;2023-02-23T20:11:34;8.90;73.10
31731;DHT22;18310;55.586;12.286;2023-02-23T20:14:49;8.90;73.10
31731;DHT22;18310;55.586;12.286;2023-02-23T20:17:59;8.90;73.00
31731;DHT22;18310;55.586;12.286;2023-02-23T20:21:16;8.70;72.70
31731;DHT22;18310;55.586;12.286;2023-02-23T20:24:36;8.80;72.60
31731;DHT22;18310;55.586;12.286;2023-02-23T20:27:43;8.00;71.80
31731;DHT22;18310;55.586;12.286;2023-02-23T20:30:59;6.70;71.20
31731;DHT22;18310;55.586;12.286;2023-02-23T20:34:30;8.70;72.20
31731;DHT22;18310;55.586;12.286;2023-02-23T20:37:51;8.70;71.40
31731;DHT22;18310;55.586;12.286;2023-02-23T20:41:12;9.60;71.90